Nearby METAR Reports

 

CWGT - Sisters Island (Auto)
Distance from station: NE 39km
Updated: 2021-01-16 00:00

 Wind from SSE
Wind: SSE 15 km/h
Temperature: 7°C
Wind Chill: 4°C
Dew Point: 6°C
Humidity: 93%
2021/01/16 08:00 CWGT 160800Z AUTO 15008KT 07/06 RMK AO1 SLP312 T00670061 50010
CWGB - Ballenas Island (Auto)
Distance from station: ENE 47km
Updated: 2021-01-16 00:00

 Wind from ESE
Wind: ESE 15 km/h
Temperature: 6°C
Wind Chill: 3°C
2021/01/16 08:00 CWGB 160800Z AUTO 11008KT 06/ RMK AO1 SLP309 T0060 50007
CYQQ - CFB Comox
Distance from station: N 55km
Updated: 2021-01-16 00:00
Fog, Overcast
Fog, Overcast
 Wind from W
Wind: W 4 km/h
Temperature: 4°C
Dew Point: 3°C
Humidity: 93%
Barometer: 1031.8 hPa
Summary: Fog
Clouds: Overcast
Visibility: 0 km
Cloud details: Overcast 30 m
2021/01/16 08:00 CYQQ 160800Z 28002KT 0SM R12/2600FT/U FG VV001 04/03 A3047 RMK FG8 SLP318
 
CYPW - Powell River Airport
Distance from station: NNE 69km
Updated: 2021-01-15 19:00
NOT Current
Few Clouds
Few Clouds
 Wind from E
Wind: E 4 km/h
Temperature: 5°C
Dew Point: 5°C
Humidity: 100%
Barometer: 1030.1 hPa
Clouds: Few Clouds
Visibility: 32 km
Cloud details: Few Clouds 2134 m
2021/01/16 03:00 CYPW 160300Z 09002KT 20SM FEW070 05/05 A3042 RMK AC2 SHLW FG ON RWY LAST STFD OBS NEXT OBS 161500 UTC SLP306
CYCD - Nanaimo Airport
Distance from station: ESE 70km
Updated: 2021-01-15 21:00
NOT Current
Clear
Clear
 Wind from calm
Wind: Calm
Temperature: 1°C
Dew Point: 1°C
Humidity: 100%
Barometer: 1030.5 hPa
Clouds: Clear
Visibility: 24 km
2021/01/16 05:00 CYCD 160500Z 00000KT 15SM SKC 01/01 A3043 RMK LAST STFD OBS/NEXT 161400Z SLP307
CYAZ - Tofino Airport
Distance from station: WSW 73km
Updated: 2021-01-15 17:00
NOT Current
Mist, Overcast
Mist, Overcast
 Wind from ESE
Wind: ESE 6 km/h
Temperature: 9°C
Dew Point: 8°C
Humidity: 94%
Barometer: 1029.8 hPa
Summary: Mist
Clouds: Overcast
Visibility: 8 km
Cloud details: Overcast 244 m
2021/01/16 01:00 CYAZ 160100Z 12003KT 110V170 5SM BR OVC008TCU 09/08 A3041 RMK TCU8 VIS SW 2SM/LAST STFD OBS/NXT 161500UTC SLP300
 
CWEL - Entrance Island (Auto)
Distance from station: E 73km
Updated: 2021-01-16 00:00

 Wind from S
Wind: S 4 km/h
Temperature: 5°C
Dew Point: 5°C
Humidity: 100%
2021/01/16 08:00 CWEL 160800Z AUTO 19002KT 05/05 RMK AO1 SLP313 T00530047 50009
CYBL - Campbell River Airport
Distance from station: NNW 88km
Updated: 2021-01-15 21:00
NOT Current
Partly cloudy
Partly cloudy
 Wind from WSW
Wind: WSW 4 km/h
Temperature: 1°C
Dew Point: 1°C
Humidity: 100%
Barometer: 1030.5 hPa
Clouds: Partly cloudy
Visibility: 24 km
Cloud details: Few Clouds 457 m
Partly cloudy 2134 m
2021/01/16 05:00 CYBL 160500Z 25002KT 15SM FEW015 SCT070 01/01 A3043 RMK SC1AC3 FROIN LAST STFD OBS/NEXT 161400 UTC SLP309
CWKH - Malahat Highway (Auto)
Distance from station: SE 116km
Updated: 2021-01-16 00:00

 
Temperature: 4°C
2021/01/16 08:00 CWKH 160800Z AUTO 04/ RMK AO1 SLP299 T0035 50006
 
CYVR - Vancouver Intl Airport
Distance from station: E 118km
Updated: 2021-01-16 00:00
Partly cloudy
Partly cloudy
 Wind from E
Wind: E 13 km/h
Temperature: 5°C
Wind Chill: 2°C
Dew Point: 5°C
Humidity: 100%
Barometer: 1031.5 hPa
Clouds: Partly cloudy
Visibility: 32 km
Cloud details: Few Clouds 1615 m
Partly cloudy 2438 m
2021/01/16 08:00 CYVR 160800Z 08007KT 20SM FEW053 SCT080 05/05 A3046 RMK SC2AC1 SLP315
CYYJ - Victoria Intl Airport
Distance from station: ESE 120km
Updated: 2021-01-16 00:00
Few Clouds
Few Clouds
 Wind from WSW
Wind: WSW 9 km/h
Temperature: 3°C
Wind Chill: 0°C
Dew Point: 2°C
Humidity: 93%
Barometer: 1031.2 hPa
Clouds: Few Clouds
Visibility: 24 km
Cloud details: Few Clouds 7315 m
2021/01/16 08:00 CYYJ 160800Z 25005KT 15SM FEW240 03/02 A3045 RMK CI1 SLP312
CWEB - Estevan Pt. (Auto)
Distance from station: W 129km
Updated: 2021-01-16 00:00

 Wind from ESE
Wind: ESE 9 km/h
Temperature: 7°C
Wind Chill: 6°C
Dew Point: 7°C
Humidity: 100%
2021/01/16 08:00 CWEB 160800Z AUTO 12005KT 07/07 RMK AO1 SLP310 T00650065 50005
 
CWQK - Race Rocks (Auto)
Distance from station: SE 138km
Updated: 2021-01-16 00:00

 Wind from NW
Wind: NW 6 km/h
Temperature: 8°C
2021/01/16 08:00 CWQK 160800Z AUTO 31003KT 08/ RMK AO1 SLP312 T0080 50004
CWAE - Whistler
Distance from station: NE 167km
Updated: 2021-01-15 17:00
NOT Current
Mostly cloudy
Mostly cloudy
 Wind from calm
Wind: Calm
Temperature: 2°C
Dew Point: 1°C
Humidity: 93%
Barometer: 1027.8 hPa
Clouds: Mostly cloudy
Visibility: 24 km
Cloud details: Mostly cloudy 1676 m
2021/01/16 01:00 CWAE 160100Z 00000KT 15SM BKN055 02/01 A3035 RMK SC6 LAST OBS/NEXT161500UTC WND ESTD SLP300
CYZT - Port Hardy Airport
Distance from station: NW 244km
Updated: 2021-01-16 00:00
Overcast
Overcast
 Wind from S
Wind: S 6 km/h
Temperature: 4°C
Dew Point: 4°C
Humidity: 100%
Barometer: 1029.5 hPa
Clouds: Overcast
Visibility: 24 km
Cloud details: Partly cloudy 1341 m
Overcast 1798 m
2021/01/16 08:00 CYZT 160800Z 17003KT 15SM SCT044 OVC059 04/04 A3040 RMK SC4SC4 SLP297
 
CWRU - Solander Isl (Auto)
Distance from station: WNW 247km
Updated: 2021-01-16 00:00

 Wind from SE
Wind: SE 24 km/h, Gust: 37 km/h
Temperature: 8°C
Wind Chill: 4°C
Dew Point: 8°C
Humidity: 100%
2021/01/16 08:00 CWRU 160800Z AUTO 13013G20KT 08/08 RMK AO1 PK WND 12021/0746 SLP285 T00770076 58007